sensor_id;sensor_type;location;lat;lon;timestamp;P1;durP1;ratioP1;P2;durP2;ratioP2
2213;SDS011;1113;42.018;23.986;2023-02-01T00:02:04;2.60;;;1.58;;
2213;SDS011;1113;42.018;23.986;2023-02-01T00:04:31;4.43;;;2.15;;
2213;SDS011;1113;42.018;23.986;2023-02-01T00:06:57;3.40;;;2.70;;
2213;SDS011;1113;42.018;23.986;2023-02-01T00:09:25;4.10;;;2.97;;
2213;SDS011;1113;42.018;23.986;2023-02-01T00:11:54;4.72;;;2.78;;
2213;SDS011;1113;42.018;23.986;2023-02-01T00:14:24;3.40;;;1.70;;
2213;SDS011;1113;42.018;23.986;2023-02-01T00:16:51;3.92;;;3.08;;
2213;SDS011;1113;42.018;23.986;2023-02-01T00:19:18;5.15;;;3.35;;
2213;SDS011;1113;42.018;23.986;2023-02-01T00:21:45;6.13;;;3.63;;
2213;SDS011;1113;42.018;23.986;2023-02-01T00:24:11;4.95;;;3.20;;
2213;SDS011;1113;42.018;23.986;2023-02-01T00:26:39;4.10;;;2.83;;
2213;SDS011;1113;42.018;23.986;2023-02-01T00:29:11;5.25;;;3.20;;
2213;SDS011;1113;42.018;23.986;2023-02-01T00:31:39;10.02;;;4.57;;
2213;SDS011;1113;42.018;23.986;2023-02-01T00:34:06;3.45;;;2.60;;
2213;SDS011;1113;42.018;23.986;2023-02-01T00:36:33;3.90;;;2.10;;
2213;SDS011;1113;42.018;23.986;2023-02-01T00:39:00;6.07;;;2.35;;
2213;SDS011;1113;42.018;23.986;2023-02-01T00:41:27;4.60;;;2.80;;
2213;SDS011;1113;42.018;23.986;2023-02-01T00:43:54;2.42;;;1.90;;
2213;SDS011;1113;42.018;23.986;2023-02-01T00:46:22;2.85;;;1.85;;
2213;SDS011;1113;42.018;23.986;2023-02-01T00:48:49;3.20;;;1.60;;
2213;SDS011;1113;42.018;23.986;2023-02-01T00:51:18;3.17;;;1.52;;
2213;SDS011;1113;42.018;23.986;2023-02-01T00:53:47;5.88;;;3.42;;
2213;SDS011;1113;42.018;23.986;2023-02-01T00:56:14;8.82;;;4.63;;
2213;SDS011;1113;42.018;23.986;2023-02-01T00:58:41;8.50;;;5.45;;
2213;SDS011;1113;42.018;23.986;2023-02-01T01:01:09;9.73;;;5.30;;
2213;SDS011;1113;42.018;23.986;2023-02-01T01:03:39;15.40;;;10.20;;
2213;SDS011;1113;42.018;23.986;2023-02-01T01:06:09;7.85;;;5.28;;
2213;SDS011;1113;42.018;23.986;2023-02-01T01:08:37;23.80;;;15.23;;
2213;SDS011;1113;42.018;23.986;2023-02-01T01:11:05;20.92;;;12.45;;
2213;SDS011;1113;42.018;23.986;2023-02-01T01:13:32;12.48;;;7.50;;
2213;SDS011;1113;42.018;23.986;2023-02-01T01:16:00;24.33;;;16.60;;
2213;SDS011;1113;42.018;23.986;2023-02-01T01:18:28;22.40;;;13.43;;
2213;SDS011;1113;42.018;23.986;2023-02-01T01:20:56;26.88;;;16.60;;
2213;SDS011;1113;42.018;23.986;2023-02-01T01:23:23;17.70;;;11.63;;
2213;SDS011;1113;42.018;23.986;2023-02-01T01:25:51;14.40;;;10.00;;
2213;SDS011;1113;42.018;23.986;2023-02-01T01:28:21;21.55;;;13.15;;
2213;SDS011;1113;42.018;23.986;2023-02-01T01:30:48;23.50;;;15.18;;
2213;SDS011;1113;42.018;23.986;2023-02-01T01:33:15;21.90;;;14.45;;
2213;SDS011;1113;42.018;23.986;2023-02-01T01:35:42;21.30;;;12.40;;
2213;SDS011;1113;42.018;23.986;2023-02-01T01:38:11;20.02;;;13.05;;
2213;SDS011;1113;42.018;23.986;2023-02-01T01:40:37;14.48;;;9.50;;
2213;SDS011;1113;42.018;23.986;2023-02-01T01:43:10;15.73;;;10.20;;
2213;SDS011;1113;42.018;23.986;2023-02-01T01:45:39;10.50;;;6.65;;
2213;SDS011;1113;42.018;23.986;2023-02-01T01:48:07;11.88;;;7.28;;
2213;SDS011;1113;42.018;23.986;2023-02-01T01:50:40;9.40;;;7.65;;
2213;SDS011;1113;42.018;23.986;2023-02-01T01:53:15;15.70;;;10.55;;
2213;SDS011;1113;42.018;23.986;2023-02-01T01:55:46;11.07;;;8.10;;
2213;SDS011;1113;42.018;23.986;2023-02-01T01:58:16;13.80;;;10.90;;
2213;SDS011;1113;42.018;23.986;2023-02-01T02:00:45;13.00;;;8.10;;
2213;SDS011;1113;42.018;23.986;2023-02-01T02:03:14;9.85;;;7.22;;
2213;SDS011;1113;42.018;23.986;2023-02-01T02:05:44;9.68;;;7.13;;
2213;SDS011;1113;42.018;23.986;2023-02-01T02:08:12;6.18;;;5.05;;
2213;SDS011;1113;42.018;23.986;2023-02-01T02:10:40;6.93;;;4.97;;
2213;SDS011;1113;42.018;23.986;2023-02-01T02:13:26;6.30;;;4.53;;
2213;SDS011;1113;42.018;23.986;2023-02-01T02:15:57;5.50;;;4.55;;
2213;SDS011;1113;42.018;23.986;2023-02-01T02:19:00;5.43;;;4.60;;
2213;SDS011;1113;42.018;23.986;2023-02-01T02:22:04;5.25;;;3.97;;
2213;SDS011;1113;42.018;23.986;2023-02-01T02:24:53;8.68;;;4.55;;
2213;SDS011;1113;42.018;23.986;2023-02-01T02:27:35;6.78;;;4.90;;
2213;SDS011;1113;42.018;23.986;2023-02-01T02:33:24;10.45;;;7.43;;
2213;SDS011;1113;42.018;23.986;2023-02-01T02:36:19;10.40;;;7.45;;
2213;SDS011;1113;42.018;23.986;2023-02-01T02:38:58;16.45;;;10.85;;
2213;SDS011;1113;42.018;23.986;2023-02-01T02:41:31;13.50;;;8.68;;
2213;SDS011;1113;42.018;23.986;2023-02-01T02:44:24;7.50;;;4.30;;
2213;SDS011;1113;42.018;23.986;2023-02-01T02:47:16;7.60;;;5.13;;
2213;SDS011;1113;42.018;23.986;2023-02-01T02:49:51;5.97;;;3.47;;
2213;SDS011;1113;42.018;23.986;2023-02-01T02:52:42;7.03;;;4.63;;
2213;SDS011;1113;42.018;23.986;2023-02-01T02:55:31;6.82;;;5.40;;
2213;SDS011;1113;42.018;23.986;2023-02-01T02:58:01;7.30;;;5.22;;
2213;SDS011;1113;42.018;23.986;2023-02-01T03:00:49;5.65;;;4.97;;
2213;SDS011;1113;42.018;23.986;2023-02-01T03:03:36;5.55;;;3.80;;
2213;SDS011;1113;42.018;23.986;2023-02-01T03:06:22;6.97;;;4.18;;
2213;SDS011;1113;42.018;23.986;2023-02-01T03:08:50;4.95;;;3.50;;
2213;SDS011;1113;42.018;23.986;2023-02-01T03:11:19;5.05;;;2.90;;
2213;SDS011;1113;42.018;23.986;2023-02-01T03:13:48;3.38;;;2.50;;
2213;SDS011;1113;42.018;23.986;2023-02-01T03:16:17;4.10;;;3.03;;
2213;SDS011;1113;42.018;23.986;2023-02-01T03:18:52;4.97;;;3.00;;
2213;SDS011;1113;42.018;23.986;2023-02-01T03:21:26;5.70;;;4.47;;
2213;SDS011;1113;42.018;23.986;2023-02-01T03:23:59;5.10;;;3.80;;
2213;SDS011;1113;42.018;23.986;2023-02-01T03:26:29;3.60;;;2.90;;
2213;SDS011;1113;42.018;23.986;2023-02-01T03:29:00;5.15;;;3.97;;
2213;SDS011;1113;42.018;23.986;2023-02-01T03:31:34;5.50;;;3.20;;
2213;SDS011;1113;42.018;23.986;2023-02-01T03:34:01;18.50;;;9.77;;
2213;SDS011;1113;42.018;23.986;2023-02-01T03:36:30;17.17;;;9.05;;
2213;SDS011;1113;42.018;23.986;2023-02-01T03:39:02;4.25;;;2.97;;
2213;SDS011;1113;42.018;23.986;2023-02-01T03:41:35;4.13;;;3.28;;
2213;SDS011;1113;42.018;23.986;2023-02-01T03:44:08;4.80;;;3.80;;
2213;SDS011;1113;42.018;23.986;2023-02-01T03:46:41;7.95;;;6.00;;
2213;SDS011;1113;42.018;23.986;2023-02-01T03:49:14;9.50;;;6.32;;
2213;SDS011;1113;42.018;23.986;2023-02-01T03:51:48;6.45;;;3.92;;
2213;SDS011;1113;42.018;23.986;2023-02-01T03:54:17;4.97;;;3.45;;
2213;SDS011;1113;42.018;23.986;2023-02-01T03:56:45;4.68;;;3.78;;
2213;SDS011;1113;42.018;23.986;2023-02-01T03:59:14;6.82;;;4.00;;
2213;SDS011;1113;42.018;23.986;2023-02-01T04:01:41;4.82;;;3.53;;
2213;SDS011;1113;42.018;23.986;2023-02-01T04:04:08;5.50;;;3.88;;
2213;SDS011;1113;42.018;23.986;2023-02-01T04:06:35;6.50;;;4.47;;
2213;SDS011;1113;42.018;23.986;2023-02-01T04:09:03;7.38;;;4.40;;
2213;SDS011;1113;42.018;23.986;2023-02-01T04:11:30;5.50;;;3.80;;
2213;SDS011;1113;42.018;23.986;2023-02-01T04:13:57;6.78;;;4.57;;
2213;SDS011;1113;42.018;23.986;2023-02-01T04:16:29;9.45;;;6.93;;
2213;SDS011;1113;42.018;23.986;2023-02-01T04:18:56;10.23;;;6.03;;
2213;SDS011;1113;42.018;23.986;2023-02-01T04:21:23;9.38;;;6.78;;
2213;SDS011;1113;42.018;23.986;2023-02-01T04:23:50;20.92;;;15.40;;
2213;SDS011;1113;42.018;23.986;2023-02-01T04:26:18;19.85;;;12.27;;
2213;SDS011;1113;42.018;23.986;2023-02-01T04:28:46;3.70;;;2.58;;
2213;SDS011;1113;42.018;23.986;2023-02-01T04:31:13;5.20;;;4.15;;
2213;SDS011;1113;42.018;23.986;2023-02-01T04:33:40;9.20;;;5.95;;
2213;SDS011;1113;42.018;23.986;2023-02-01T04:36:07;8.13;;;5.18;;
2213;SDS011;1113;42.018;23.986;2023-02-01T04:38:35;7.40;;;4.43;;
2213;SDS011;1113;42.018;23.986;2023-02-01T04:41:01;13.48;;;7.50;;
2213;SDS011;1113;42.018;23.986;2023-02-01T04:43:30;5.45;;;3.50;;
2213;SDS011;1113;42.018;23.986;2023-02-01T04:45:56;11.02;;;7.93;;
2213;SDS011;1113;42.018;23.986;2023-02-01T04:48:23;4.72;;;3.10;;
2213;SDS011;1113;42.018;23.986;2023-02-01T04:50:50;7.15;;;4.75;;
2213;SDS011;1113;42.018;23.986;2023-02-01T04:53:17;11.40;;;7.07;;
2213;SDS011;1113;42.018;23.986;2023-02-01T04:55:43;2.92;;;2.25;;
2213;SDS011;1113;42.018;23.986;2023-02-01T04:58:10;3.70;;;3.00;;
2213;SDS011;1113;42.018;23.986;2023-02-01T05:00:39;13.02;;;7.13;;
2213;SDS011;1113;42.018;23.986;2023-02-01T05:03:06;10.15;;;7.50;;
2213;SDS011;1113;42.018;23.986;2023-02-01T05:05:33;16.45;;;10.95;;
2213;SDS011;1113;42.018;23.986;2023-02-01T05:07:59;22.83;;;13.63;;
2213;SDS011;1113;42.018;23.986;2023-02-01T05:10:26;22.88;;;14.98;;
2213;SDS011;1113;42.018;23.986;2023-02-01T05:12:53;12.95;;;9.70;;
2213;SDS011;1113;42.018;23.986;2023-02-01T05:15:38;11.23;;;6.70;;
2213;SDS011;1113;42.018;23.986;2023-02-01T05:18:05;12.63;;;7.40;;
2213;SDS011;1113;42.018;23.986;2023-02-01T05:20:32;17.92;;;9.05;;
2213;SDS011;1113;42.018;23.986;2023-02-01T05:22:59;19.95;;;9.07;;
2213;SDS011;1113;42.018;23.986;2023-02-01T05:25:26;13.35;;;8.88;;
2213;SDS011;1113;42.018;23.986;2023-02-01T05:27:52;23.38;;;14.90;;
2213;SDS011;1113;42.018;23.986;2023-02-01T05:30:19;23.20;;;15.40;;
2213;SDS011;1113;42.018;23.986;2023-02-01T05:32:50;28.15;;;20.05;;
2213;SDS011;1113;42.018;23.986;2023-02-01T05:35:17;6.75;;;3.40;;
2213;SDS011;1113;42.018;23.986;2023-02-01T05:37:44;11.82;;;6.97;;
2213;SDS011;1113;42.018;23.986;2023-02-01T05:40:11;15.55;;;10.55;;
2213;SDS011;1113;42.018;23.986;2023-02-01T05:42:38;9.77;;;8.48;;
2213;SDS011;1113;42.018;23.986;2023-02-01T05:45:05;19.67;;;10.88;;
2213;SDS011;1113;42.018;23.986;2023-02-01T05:47:32;22.65;;;11.98;;
2213;SDS011;1113;42.018;23.986;2023-02-01T05:50:01;21.55;;;12.30;;
2213;SDS011;1113;42.018;23.986;2023-02-01T05:52:28;16.05;;;11.25;;
2213;SDS011;1113;42.018;23.986;2023-02-01T05:54:55;9.70;;;5.10;;
2213;SDS011;1113;42.018;23.986;2023-02-01T05:57:21;5.95;;;4.53;;
2213;SDS011;1113;42.018;23.986;2023-02-01T05:59:48;11.95;;;7.88;;
2213;SDS011;1113;42.018;23.986;2023-02-01T06:02:15;12.32;;;7.00;;
2213;SDS011;1113;42.018;23.986;2023-02-01T06:04:42;7.82;;;5.70;;
2213;SDS011;1113;42.018;23.986;2023-02-01T06:07:10;21.70;;;13.00;;
2213;SDS011;1113;42.018;23.986;2023-02-01T06:09:37;20.92;;;12.57;;
2213;SDS011;1113;42.018;23.986;2023-02-01T06:12:04;18.60;;;12.07;;
2213;SDS011;1113;42.018;23.986;2023-02-01T06:14:31;27.27;;;15.77;;
2213;SDS011;1113;42.018;23.986;2023-02-01T06:16:58;25.55;;;14.32;;
2213;SDS011;1113;42.018;23.986;2023-02-01T06:19:25;13.48;;;7.63;;
2213;SDS011;1113;42.018;23.986;2023-02-01T06:21:52;13.90;;;9.13;;
2213;SDS011;1113;42.018;23.986;2023-02-01T06:24:20;17.85;;;12.23;;
2213;SDS011;1113;42.018;23.986;2023-02-01T06:26:46;20.20;;;13.20;;
2213;SDS011;1113;42.018;23.986;2023-02-01T06:29:13;14.85;;;10.63;;
2213;SDS011;1113;42.018;23.986;2023-02-01T06:31:40;14.40;;;10.63;;
2213;SDS011;1113;42.018;23.986;2023-02-01T06:34:07;16.65;;;11.48;;
2213;SDS011;1113;42.018;23.986;2023-02-01T06:36:34;21.42;;;12.85;;
2213;SDS011;1113;42.018;23.986;2023-02-01T06:39:01;21.13;;;13.35;;
2213;SDS011;1113;42.018;23.986;2023-02-01T06:41:29;14.82;;;12.10;;
2213;SDS011;1113;42.018;23.986;2023-02-01T06:43:56;29.25;;;19.45;;
2213;SDS011;1113;42.018;23.986;2023-02-01T06:46:23;23.88;;;13.82;;
2213;SDS011;1113;42.018;23.986;2023-02-01T06:48:49;18.10;;;13.73;;
2213;SDS011;1113;42.018;23.986;2023-02-01T06:51:20;28.85;;;14.32;;
2213;SDS011;1113;42.018;23.986;2023-02-01T06:53:48;58.92;;;28.40;;
2213;SDS011;1113;42.018;23.986;2023-02-01T06:56:15;28.25;;;17.52;;
2213;SDS011;1113;42.018;23.986;2023-02-01T06:58:43;22.70;;;15.65;;
2213;SDS011;1113;42.018;23.986;2023-02-01T07:01:10;63.83;;;31.58;;
2213;SDS011;1113;42.018;23.986;2023-02-01T07:03:37;23.83;;;13.90;;
2213;SDS011;1113;42.018;23.986;2023-02-01T07:06:05;19.85;;;11.45;;
2213;SDS011;1113;42.018;23.986;2023-02-01T07:08:33;46.60;;;26.23;;
2213;SDS011;1113;42.018;23.986;2023-02-01T07:11:02;14.57;;;9.88;;
2213;SDS011;1113;42.018;23.986;2023-02-01T07:13:29;19.88;;;12.13;;
2213;SDS011;1113;42.018;23.986;2023-02-01T07:16:01;15.25;;;9.82;;
2213;SDS011;1113;42.018;23.986;2023-02-01T07:18:29;18.90;;;11.88;;
2213;SDS011;1113;42.018;23.986;2023-02-01T07:20:56;20.92;;;12.63;;
2213;SDS011;1113;42.018;23.986;2023-02-01T07:23:24;16.92;;;10.50;;
2213;SDS011;1113;42.018;23.986;2023-02-01T07:25:52;21.48;;;12.73;;
2213;SDS011;1113;42.018;23.986;2023-02-01T07:28:20;19.80;;;15.40;;
2213;SDS011;1113;42.018;23.986;2023-02-01T07:30:47;18.48;;;13.25;;
2213;SDS011;1113;42.018;23.986;2023-02-01T07:33:17;24.02;;;14.38;;
2213;SDS011;1113;42.018;23.986;2023-02-01T07:35:45;61.95;;;37.67;;
2213;SDS011;1113;42.018;23.986;2023-02-01T07:38:12;51.15;;;33.92;;
2213;SDS011;1113;42.018;23.986;2023-02-01T07:40:39;46.70;;;28.50;;
2213;SDS011;1113;42.018;23.986;2023-02-01T07:43:06;29.00;;;15.65;;
2213;SDS011;1113;42.018;23.986;2023-02-01T07:45:33;33.28;;;21.73;;
2213;SDS011;1113;42.018;23.986;2023-02-01T07:48:01;28.13;;;17.98;;
2213;SDS011;1113;42.018;23.986;2023-02-01T07:50:29;22.98;;;16.88;;
2213;SDS011;1113;42.018;23.986;2023-02-01T07:52:58;22.27;;;14.30;;
2213;SDS011;1113;42.018;23.986;2023-02-01T07:55:25;31.77;;;20.92;;
2213;SDS011;1113;42.018;23.986;2023-02-01T07:57:52;27.05;;;17.85;;
2213;SDS011;1113;42.018;23.986;2023-02-01T08:00:19;29.02;;;19.63;;
2213;SDS011;1113;42.018;23.986;2023-02-01T08:03:03;35.88;;;21.95;;
2213;SDS011;1113;42.018;23.986;2023-02-01T08:05:32;37.38;;;25.00;;
2213;SDS011;1113;42.018;23.986;2023-02-01T08:07:59;44.92;;;26.60;;
2213;SDS011;1113;42.018;23.986;2023-02-01T08:10:26;40.15;;;24.50;;
2213;SDS011;1113;42.018;23.986;2023-02-01T08:12:57;36.33;;;23.58;;
2213;SDS011;1113;42.018;23.986;2023-02-01T08:15:25;44.22;;;23.92;;
2213;SDS011;1113;42.018;23.986;2023-02-01T08:17:51;33.00;;;22.33;;
2213;SDS011;1113;42.018;23.986;2023-02-01T08:20:19;36.10;;;22.77;;
2213;SDS011;1113;42.018;23.986;2023-02-01T08:22:49;29.08;;;20.70;;
2213;SDS011;1113;42.018;23.986;2023-02-01T08:25:16;34.88;;;22.27;;
2213;SDS011;1113;42.018;23.986;2023-02-01T08:27:42;31.35;;;20.85;;
2213;SDS011;1113;42.018;23.986;2023-02-01T08:30:10;26.90;;;19.70;;
2213;SDS011;1113;42.018;23.986;2023-02-01T08:32:37;35.55;;;23.45;;
2213;SDS011;1113;42.018;23.986;2023-02-01T08:35:04;49.88;;;33.78;;
2213;SDS011;1113;42.018;23.986;2023-02-01T08:37:32;65.50;;;35.40;;
2213;SDS011;1113;42.018;23.986;2023-02-01T08:40:00;85.82;;;44.17;;
2213;SDS011;1113;42.018;23.986;2023-02-01T08:42:27;41.50;;;27.83;;
2213;SDS011;1113;42.018;23.986;2023-02-01T08:45:11;34.30;;;22.73;;
2213;SDS011;1113;42.018;23.986;2023-02-01T08:47:38;38.35;;;24.98;;
2213;SDS011;1113;42.018;23.986;2023-02-01T08:50:05;30.17;;;19.38;;
2213;SDS011;1113;42.018;23.986;2023-02-01T08:52:33;29.48;;;18.95;;
2213;SDS011;1113;42.018;23.986;2023-02-01T08:55:01;40.35;;;23.77;;
2213;SDS011;1113;42.018;23.986;2023-02-01T08:57:32;23.50;;;17.25;;
2213;SDS011;1113;42.018;23.986;2023-02-01T08:59:59;31.05;;;22.08;;
2213;SDS011;1113;42.018;23.986;2023-02-01T09:02:26;26.20;;;17.30;;
2213;SDS011;1113;42.018;23.986;2023-02-01T09:04:56;26.08;;;17.45;;
2213;SDS011;1113;42.018;23.986;2023-02-01T09:07:23;12.90;;;9.25;;
2213;SDS011;1113;42.018;23.986;2023-02-01T09:09:49;6.30;;;4.47;;
2213;SDS011;1113;42.018;23.986;2023-02-01T09:12:19;6.43;;;4.35;;
2213;SDS011;1113;42.018;23.986;2023-02-01T09:14:46;4.88;;;3.05;;
2213;SDS011;1113;42.018;23.986;2023-02-01T09:17:13;7.53;;;3.78;;
2213;SDS011;1113;42.018;23.986;2023-02-01T09:19:40;10.10;;;6.68;;
2213;SDS011;1113;42.018;23.986;2023-02-01T09:22:07;3.50;;;2.75;;
2213;SDS011;1113;42.018;23.986;2023-02-01T09:24:34;6.07;;;4.30;;
2213;SDS011;1113;42.018;23.986;2023-02-01T09:27:01;11.40;;;8.35;;
2213;SDS011;1113;42.018;23.986;2023-02-01T09:29:29;15.80;;;10.13;;
2213;SDS011;1113;42.018;23.986;2023-02-01T09:31:56;19.95;;;11.95;;
2213;SDS011;1113;42.018;23.986;2023-02-01T09:34:23;16.35;;;10.55;;
2213;SDS011;1113;42.018;23.986;2023-02-01T09:36:49;15.90;;;9.35;;
2213;SDS011;1113;42.018;23.986;2023-02-01T09:39:16;11.75;;;8.95;;
2213;SDS011;1113;42.018;23.986;2023-02-01T09:41:57;16.98;;;12.63;;
2213;SDS011;1113;42.018;23.986;2023-02-01T09:48:00;22.02;;;14.85;;
2213;SDS011;1113;42.018;23.986;2023-02-01T09:50:31;15.07;;;9.45;;
2213;SDS011;1113;42.018;23.986;2023-02-01T09:53:03;4.80;;;3.50;;
2213;SDS011;1113;42.018;23.986;2023-02-01T09:55:37;7.60;;;4.80;;
2213;SDS011;1113;42.018;23.986;2023-02-01T09:58:08;3.65;;;2.10;;
2213;SDS011;1113;42.018;23.986;2023-02-01T10:00:41;2.50;;;1.60;;
2213;SDS011;1113;42.018;23.986;2023-02-01T10:03:17;1.85;;;1.40;;
2213;SDS011;1113;42.018;23.986;2023-02-01T10:05:49;2.70;;;2.10;;
2213;SDS011;1113;42.018;23.986;2023-02-01T10:08:28;2.80;;;1.60;;
2213;SDS011;1113;42.018;23.986;2023-02-01T10:11:02;2.20;;;1.60;;
2213;SDS011;1113;42.018;23.986;2023-02-01T10:13:47;2.75;;;1.70;;
2213;SDS011;1113;42.018;23.986;2023-02-01T10:16:25;9.35;;;6.68;;
2213;SDS011;1113;42.018;23.986;2023-02-01T10:19:08;6.05;;;3.92;;
2213;SDS011;1113;42.018;23.986;2023-02-01T10:21:48;13.18;;;8.27;;
2213;SDS011;1113;42.018;23.986;2023-02-01T10:27:11;2.55;;;1.20;;
2213;SDS011;1113;42.018;23.986;2023-02-01T10:29:46;2.88;;;1.70;;
2213;SDS011;1113;42.018;23.986;2023-02-01T10:32:20;9.55;;;5.68;;
2213;SDS011;1113;42.018;23.986;2023-02-01T10:34:51;8.18;;;5.43;;
2213;SDS011;1113;42.018;23.986;2023-02-01T10:37:26;6.97;;;5.15;;
2213;SDS011;1113;42.018;23.986;2023-02-01T10:39:56;4.72;;;2.20;;
2213;SDS011;1113;42.018;23.986;2023-02-01T10:42:26;3.97;;;2.70;;
2213;SDS011;1113;42.018;23.986;2023-02-01T10:44:55;11.95;;;6.60;;
2213;SDS011;1113;42.018;23.986;2023-02-01T10:47:25;5.30;;;3.63;;
2213;SDS011;1113;42.018;23.986;2023-02-01T10:49:56;7.80;;;4.65;;
2213;SDS011;1113;42.018;23.986;2023-02-01T10:52:31;5.07;;;3.20;;
2213;SDS011;1113;42.018;23.986;2023-02-01T10:55:27;10.35;;;5.82;;
2213;SDS011;1113;42.018;23.986;2023-02-01T10:57:56;4.72;;;3.40;;
2213;SDS011;1113;42.018;23.986;2023-02-01T11:00:24;14.38;;;10.02;;
2213;SDS011;1113;42.018;23.986;2023-02-01T11:02:51;7.80;;;6.03;;
2213;SDS011;1113;42.018;23.986;2023-02-01T11:05:20;15.30;;;7.50;;
2213;SDS011;1113;42.018;23.986;2023-02-01T11:07:55;12.65;;;9.15;;
2213;SDS011;1113;42.018;23.986;2023-02-01T11:10:34;11.05;;;9.55;;
2213;SDS011;1113;42.018;23.986;2023-02-01T11:13:03;10.90;;;8.60;;
2213;SDS011;1113;42.018;23.986;2023-02-01T11:15:30;5.45;;;3.70;;
2213;SDS011;1113;42.018;23.986;2023-02-01T11:17:57;6.30;;;5.00;;
2213;SDS011;1113;42.018;23.986;2023-02-01T11:20:43;6.50;;;4.17;;
2213;SDS011;1113;42.018;23.986;2023-02-01T11:23:14;27.47;;;16.70;;
2213;SDS011;1113;42.018;23.986;2023-02-01T11:25:52;8.00;;;2.30;;
2213;SDS011;1113;42.018;23.986;2023-02-01T11:28:21;12.60;;;9.60;;
2213;SDS011;1113;42.018;23.986;2023-02-01T11:30:51;5.30;;;3.43;;
2213;SDS011;1113;42.018;23.986;2023-02-01T11:33:22;4.57;;;2.70;;
2213;SDS011;1113;42.018;23.986;2023-02-01T11:35:56;4.63;;;3.43;;
2213;SDS011;1113;42.018;23.986;2023-02-01T11:38:26;4.07;;;2.90;;
2213;SDS011;1113;42.018;23.986;2023-02-01T11:40:55;10.00;;;5.23;;
2213;SDS011;1113;42.018;23.986;2023-02-01T11:43:37;7.07;;;4.90;;
2213;SDS011;1113;42.018;23.986;2023-02-01T11:46:15;5.87;;;4.10;;
2213;SDS011;1113;42.018;23.986;2023-02-01T11:48:47;14.20;;;8.93;;
2213;SDS011;1113;42.018;23.986;2023-02-01T11:51:21;10.63;;;8.10;;
2213;SDS011;1113;42.018;23.986;2023-02-01T11:54:05;8.57;;;5.97;;
2213;SDS011;1113;42.018;23.986;2023-02-01T11:56:42;3.93;;;2.90;;
2213;SDS011;1113;42.018;23.986;2023-02-01T11:59:20;4.07;;;2.30;;
2213;SDS011;1113;42.018;23.986;2023-02-01T12:02:15;4.30;;;2.50;;
2213;SDS011;1113;42.018;23.986;2023-02-01T12:05:18;4.77;;;3.03;;
2213;SDS011;1113;42.018;23.986;2023-02-01T12:08:02;3.60;;;2.80;;
2213;SDS011;1113;42.018;23.986;2023-02-01T12:10:41;6.73;;;3.70;;
2213;SDS011;1113;42.018;23.986;2023-02-01T12:13:18;5.33;;;3.57;;
2213;SDS011;1113;42.018;23.986;2023-02-01T12:15:58;4.37;;;2.60;;
2213;SDS011;1113;42.018;23.986;2023-02-01T12:18:43;6.27;;;3.50;;
2213;SDS011;1113;42.018;23.986;2023-02-01T12:21:24;5.40;;;3.57;;
2213;SDS011;1113;42.018;23.986;2023-02-01T12:27:44;5.57;;;4.20;;
2213;SDS011;1113;42.018;23.986;2023-02-01T12:30:31;3.00;;;2.10;;
2213;SDS011;1113;42.018;23.986;2023-02-01T12:33:13;7.50;;;4.00;;
2213;SDS011;1113;42.018;23.986;2023-02-01T12:35:50;13.20;;;8.10;;
2213;SDS011;1113;42.018;23.986;2023-02-01T12:38:34;8.27;;;6.30;;
2213;SDS011;1113;42.018;23.986;2023-02-01T12:41:15;13.77;;;10.50;;
2213;SDS011;1113;42.018;23.986;2023-02-01T12:43:52;13.23;;;8.60;;
2213;SDS011;1113;42.018;23.986;2023-02-01T12:46:23;8.60;;;7.10;;
2213;SDS011;1113;42.018;23.986;2023-02-01T12:48:58;8.37;;;5.97;;
2213;SDS011;1113;42.018;23.986;2023-02-01T12:51:31;8.30;;;5.60;;
2213;SDS011;1113;42.018;23.986;2023-02-01T12:54:02;18.20;;;14.33;;
2213;SDS011;1113;42.018;23.986;2023-02-01T12:56:34;17.93;;;15.60;;
2213;SDS011;1113;42.018;23.986;2023-02-01T12:59:09;7.23;;;4.60;;
2213;SDS011;1113;42.018;23.986;2023-02-01T13:01:44;7.13;;;6.07;;
2213;SDS011;1113;42.018;23.986;2023-02-01T13:04:18;11.73;;;9.33;;
2213;SDS011;1113;42.018;23.986;2023-02-01T13:06:52;5.27;;;2.30;;
2213;SDS011;1113;42.018;23.986;2023-02-01T13:09:24;4.10;;;2.70;;
2213;SDS011;1113;42.018;23.986;2023-02-01T13:11:57;8.43;;;7.57;;
2213;SDS011;1113;42.018;23.986;2023-02-01T13:14:29;10.90;;;7.70;;
2213;SDS011;1113;42.018;23.986;2023-02-01T13:17:02;7.17;;;3.70;;
2213;SDS011;1113;42.018;23.986;2023-02-01T13:19:34;3.90;;;2.07;;
2213;SDS011;1113;42.018;23.986;2023-02-01T13:22:09;3.15;;;2.25;;
2213;SDS011;1113;42.018;23.986;2023-02-01T13:24:39;3.57;;;2.53;;
2213;SDS011;1113;42.018;23.986;2023-02-01T13:27:12;5.50;;;3.87;;
2213;SDS011;1113;42.018;23.986;2023-02-01T13:29:41;7.07;;;3.03;;
2213;SDS011;1113;42.018;23.986;2023-02-01T13:32:25;5.20;;;3.60;;
2213;SDS011;1113;42.018;23.986;2023-02-01T13:35:15;8.03;;;5.10;;
2213;SDS011;1113;42.018;23.986;2023-02-01T13:38:03;6.30;;;4.73;;
2213;SDS011;1113;42.018;23.986;2023-02-01T13:40:51;7.80;;;4.27;;
2213;SDS011;1113;42.018;23.986;2023-02-01T13:43:39;7.50;;;4.97;;
2213;SDS011;1113;42.018;23.986;2023-02-01T13:46:10;3.97;;;3.57;;
2213;SDS011;1113;42.018;23.986;2023-02-01T13:48:40;8.63;;;6.07;;
2213;SDS011;1113;42.018;23.986;2023-02-01T13:51:13;5.50;;;4.77;;
2213;SDS011;1113;42.018;23.986;2023-02-01T13:53:44;3.10;;;2.10;;
2213;SDS011;1113;42.018;23.986;2023-02-01T13:56:15;4.20;;;2.20;;
2213;SDS011;1113;42.018;23.986;2023-02-01T13:58:45;3.33;;;2.00;;
2213;SDS011;1113;42.018;23.986;2023-02-01T14:01:34;4.40;;;2.80;;
2213;SDS011;1113;42.018;23.986;2023-02-01T14:04:02;5.30;;;2.93;;
2213;SDS011;1113;42.018;23.986;2023-02-01T14:06:41;3.50;;;2.30;;
2213;SDS011;1113;42.018;23.986;2023-02-01T14:09:12;4.80;;;3.10;;
2213;SDS011;1113;42.018;23.986;2023-02-01T14:11:42;5.00;;;3.00;;
2213;SDS011;1113;42.018;23.986;2023-02-01T14:26:09;6.37;;;3.67;;
2213;SDS011;1113;42.018;23.986;2023-02-01T14:28:46;5.43;;;3.77;;
2213;SDS011;1113;42.018;23.986;2023-02-01T14:34:11;17.50;;;10.47;;
2213;SDS011;1113;42.018;23.986;2023-02-01T14:36:44;12.77;;;7.20;;
2213;SDS011;1113;42.018;23.986;2023-02-01T14:42:12;10.60;;;5.80;;
2213;SDS011;1113;42.018;23.986;2023-02-01T14:44:45;11.63;;;6.13;;
2213;SDS011;1113;42.018;23.986;2023-02-01T14:50:11;10.27;;;8.90;;
2213;SDS011;1113;42.018;23.986;2023-02-01T14:52:45;10.90;;;8.43;;
2213;SDS011;1113;42.018;23.986;2023-02-01T14:55:14;25.27;;;18.67;;
2213;SDS011;1113;42.018;23.986;2023-02-01T14:57:46;11.40;;;7.90;;
2213;SDS011;1113;42.018;23.986;2023-02-01T15:00:23;11.43;;;8.13;;
2213;SDS011;1113;42.018;23.986;2023-02-01T15:02:55;34.87;;;21.60;;
2213;SDS011;1113;42.018;23.986;2023-02-01T15:05:42;25.80;;;17.40;;
2213;SDS011;1113;42.018;23.986;2023-02-01T15:08:12;13.43;;;9.93;;
2213;SDS011;1113;42.018;23.986;2023-02-01T15:10:43;9.13;;;6.20;;
2213;SDS011;1113;42.018;23.986;2023-02-01T15:13:18;5.10;;;3.33;;
2213;SDS011;1113;42.018;23.986;2023-02-01T15:18:31;24.33;;;10.10;;
2213;SDS011;1113;42.018;23.986;2023-02-01T15:20:59;8.85;;;3.95;;
2213;SDS011;1113;42.018;23.986;2023-02-01T15:23:27;12.80;;;8.43;;
2213;SDS011;1113;42.018;23.986;2023-02-01T15:25:54;15.68;;;11.75;;
2213;SDS011;1113;42.018;23.986;2023-02-01T15:28:22;11.50;;;7.45;;
2213;SDS011;1113;42.018;23.986;2023-02-01T15:30:54;10.95;;;6.68;;
2213;SDS011;1113;42.018;23.986;2023-02-01T15:33:23;23.63;;;16.55;;
2213;SDS011;1113;42.018;23.986;2023-02-01T15:35:53;38.47;;;23.40;;
2213;SDS011;1113;42.018;23.986;2023-02-01T15:38:29;19.98;;;12.32;;
2213;SDS011;1113;42.018;23.986;2023-02-01T15:41:01;22.45;;;16.40;;
2213;SDS011;1113;42.018;23.986;2023-02-01T15:43:31;17.98;;;12.32;;
2213;SDS011;1113;42.018;23.986;2023-02-01T15:46:00;9.27;;;6.90;;
2213;SDS011;1113;42.018;23.986;2023-02-01T15:48:32;15.63;;;10.02;;
2213;SDS011;1113;42.018;23.986;2023-02-01T15:51:04;20.83;;;16.38;;
2213;SDS011;1113;42.018;23.986;2023-02-01T15:53:32;6.72;;;4.53;;